sensor_id;sensor_type;location;lat;lon;timestamp;P1;durP1;ratioP1;P2;durP2;ratioP2
35290;SDS011;21411;50.024;19.220;2022-07-05T00:00:08;10.90;;;8.70;;
35290;SDS011;21411;50.024;19.220;2022-07-05T00:02:55;9.60;;;8.30;;
35290;SDS011;21411;50.024;19.220;2022-07-05T00:05:21;14.00;;;8.40;;
35290;SDS011;21411;50.024;19.220;2022-07-05T00:07:48;8.90;;;7.80;;
35290;SDS011;21411;50.024;19.220;2022-07-05T00:10:15;12.20;;;10.00;;
35290;SDS011;21411;50.024;19.220;2022-07-05T00:12:41;12.60;;;9.90;;
35290;SDS011;21411;50.024;19.220;2022-07-05T00:15:08;9.80;;;8.50;;
35290;SDS011;21411;50.024;19.220;2022-07-05T00:17:35;9.90;;;8.80;;
35290;SDS011;21411;50.024;19.220;2022-07-05T00:20:02;9.60;;;8.30;;
35290;SDS011;21411;50.024;19.220;2022-07-05T00:22:30;10.50;;;8.10;;
35290;SDS011;21411;50.024;19.220;2022-07-05T00:24:57;9.90;;;8.90;;
35290;SDS011;21411;50.024;19.220;2022-07-05T00:27:23;9.40;;;8.40;;
35290;SDS011;21411;50.024;19.220;2022-07-05T00:29:50;10.40;;;9.60;;
35290;SDS011;21411;50.024;19.220;2022-07-05T00:32:17;10.50;;;9.30;;
35290;SDS011;21411;50.024;19.220;2022-07-05T00:34:43;8.70;;;7.80;;
35290;SDS011;21411;50.024;19.220;2022-07-05T00:37:10;9.20;;;8.30;;
35290;SDS011;21411;50.024;19.220;2022-07-05T00:39:37;9.10;;;8.20;;
35290;SDS011;21411;50.024;19.220;2022-07-05T00:42:03;8.90;;;8.00;;
35290;SDS011;21411;50.024;19.220;2022-07-05T00:44:31;10.30;;;9.10;;
35290;SDS011;21411;50.024;19.220;2022-07-05T00:47:05;10.30;;;9.40;;
35290;SDS011;21411;50.024;19.220;2022-07-05T00:52:00;11.40;;;9.10;;
35290;SDS011;21411;50.024;19.220;2022-07-05T00:54:28;8.20;;;7.40;;
35290;SDS011;21411;50.024;19.220;2022-07-05T00:56:58;11.30;;;8.50;;
35290;SDS011;21411;50.024;19.220;2022-07-05T00:59:25;9.80;;;8.80;;
35290;SDS011;21411;50.024;19.220;2022-07-05T01:01:53;9.50;;;8.40;;
35290;SDS011;21411;50.024;19.220;2022-07-05T01:04:20;9.80;;;8.80;;
35290;SDS011;21411;50.024;19.220;2022-07-05T01:06:47;9.40;;;8.10;;
35290;SDS011;21411;50.024;19.220;2022-07-05T01:09:16;9.30;;;8.40;;
35290;SDS011;21411;50.024;19.220;2022-07-05T01:11:44;9.70;;;8.80;;
35290;SDS011;21411;50.024;19.220;2022-07-05T01:14:13;9.50;;;7.90;;
35290;SDS011;21411;50.024;19.220;2022-07-05T01:16:42;9.00;;;8.00;;
35290;SDS011;21411;50.024;19.220;2022-07-05T01:19:09;10.80;;;8.20;;
35290;SDS011;21411;50.024;19.220;2022-07-05T01:21:42;9.00;;;8.00;;
35290;SDS011;21411;50.024;19.220;2022-07-05T01:24:14;8.40;;;7.60;;
35290;SDS011;21411;50.024;19.220;2022-07-05T01:26:45;9.00;;;8.20;;
35290;SDS011;21411;50.024;19.220;2022-07-05T01:29:14;8.80;;;8.00;;
35290;SDS011;21411;50.024;19.220;2022-07-05T01:31:41;8.80;;;7.80;;
35290;SDS011;21411;50.024;19.220;2022-07-05T01:34:08;8.00;;;7.20;;
35290;SDS011;21411;50.024;19.220;2022-07-05T01:36:35;8.50;;;7.70;;
35290;SDS011;21411;50.024;19.220;2022-07-05T01:39:04;8.70;;;7.80;;
35290;SDS011;21411;50.024;19.220;2022-07-05T01:41:32;7.90;;;7.20;;
35290;SDS011;21411;50.024;19.220;2022-07-05T01:43:59;8.60;;;7.90;;
35290;SDS011;21411;50.024;19.220;2022-07-05T01:46:29;8.80;;;7.90;;
35290;SDS011;21411;50.024;19.220;2022-07-05T01:49:00;8.80;;;8.00;;
35290;SDS011;21411;50.024;19.220;2022-07-05T01:51:39;9.30;;;7.70;;
35290;SDS011;21411;50.024;19.220;2022-07-05T01:54:14;8.90;;;8.10;;
35290;SDS011;21411;50.024;19.220;2022-07-05T01:56:41;10.30;;;8.30;;
35290;SDS011;21411;50.024;19.220;2022-07-05T01:59:07;9.80;;;8.90;;
35290;SDS011;21411;50.024;19.220;2022-07-05T02:01:35;9.10;;;8.30;;
35290;SDS011;21411;50.024;19.220;2022-07-05T02:04:06;9.70;;;8.90;;
35290;SDS011;21411;50.024;19.220;2022-07-05T02:06:34;11.20;;;8.60;;
35290;SDS011;21411;50.024;19.220;2022-07-05T02:09:01;9.30;;;8.50;;
35290;SDS011;21411;50.024;19.220;2022-07-05T02:11:29;10.40;;;9.40;;
35290;SDS011;21411;50.024;19.220;2022-07-05T02:13:57;10.90;;;9.80;;
35290;SDS011;21411;50.024;19.220;2022-07-05T02:16:24;10.10;;;9.30;;
35290;SDS011;21411;50.024;19.220;2022-07-05T02:18:51;9.90;;;9.00;;
35290;SDS011;21411;50.024;19.220;2022-07-05T02:21:18;10.30;;;9.50;;
35290;SDS011;21411;50.024;19.220;2022-07-05T02:23:45;11.30;;;10.20;;
35290;SDS011;21411;50.024;19.220;2022-07-05T02:26:13;10.40;;;9.50;;
35290;SDS011;21411;50.024;19.220;2022-07-05T02:28:39;10.70;;;9.80;;
35290;SDS011;21411;50.024;19.220;2022-07-05T02:31:06;11.30;;;10.20;;
35290;SDS011;21411;50.024;19.220;2022-07-05T02:33:33;12.00;;;9.50;;
35290;SDS011;21411;50.024;19.220;2022-07-05T02:36:09;10.40;;;9.40;;
35290;SDS011;21411;50.024;19.220;2022-07-05T02:38:37;11.30;;;10.40;;
35290;SDS011;21411;50.024;19.220;2022-07-05T02:41:08;11.40;;;10.00;;
35290;SDS011;21411;50.024;19.220;2022-07-05T02:43:36;11.00;;;10.00;;
35290;SDS011;21411;50.024;19.220;2022-07-05T02:46:04;10.80;;;9.80;;
35290;SDS011;21411;50.024;19.220;2022-07-05T02:48:32;9.70;;;8.90;;
35290;SDS011;21411;50.024;19.220;2022-07-05T02:51:00;10.00;;;9.00;;
35290;SDS011;21411;50.024;19.220;2022-07-05T02:53:27;10.70;;;9.70;;
35290;SDS011;21411;50.024;19.220;2022-07-05T02:55:54;10.50;;;9.70;;
35290;SDS011;21411;50.024;19.220;2022-07-05T02:58:21;11.00;;;9.90;;
35290;SDS011;21411;50.024;19.220;2022-07-05T03:00:48;10.20;;;9.20;;
35290;SDS011;21411;50.024;19.220;2022-07-05T03:03:15;10.90;;;9.80;;
35290;SDS011;21411;50.024;19.220;2022-07-05T03:05:42;10.10;;;9.30;;
35290;SDS011;21411;50.024;19.220;2022-07-05T03:08:09;11.30;;;10.20;;
35290;SDS011;21411;50.024;19.220;2022-07-05T03:10:35;12.40;;;11.30;;
35290;SDS011;21411;50.024;19.220;2022-07-05T03:13:03;12.50;;;11.40;;
35290;SDS011;21411;50.024;19.220;2022-07-05T03:15:30;13.40;;;11.90;;
35290;SDS011;21411;50.024;19.220;2022-07-05T03:17:56;12.20;;;11.00;;
35290;SDS011;21411;50.024;19.220;2022-07-05T03:20:23;12.10;;;10.90;;
35290;SDS011;21411;50.024;19.220;2022-07-05T03:22:50;12.60;;;11.40;;
35290;SDS011;21411;50.024;19.220;2022-07-05T03:25:16;12.60;;;11.30;;
35290;SDS011;21411;50.024;19.220;2022-07-05T03:27:43;11.90;;;10.70;;
35290;SDS011;21411;50.024;19.220;2022-07-05T03:30:10;12.10;;;11.00;;
35290;SDS011;21411;50.024;19.220;2022-07-05T03:32:37;14.40;;;13.10;;
35290;SDS011;21411;50.024;19.220;2022-07-05T03:35:04;13.70;;;12.40;;
35290;SDS011;21411;50.024;19.220;2022-07-05T03:37:31;13.00;;;11.70;;
35290;SDS011;21411;50.024;19.220;2022-07-05T03:39:57;17.00;;;12.40;;
35290;SDS011;21411;50.024;19.220;2022-07-05T03:42:24;15.20;;;11.70;;
35290;SDS011;21411;50.024;19.220;2022-07-05T03:44:50;11.10;;;10.20;;
35290;SDS011;21411;50.024;19.220;2022-07-05T03:47:17;12.80;;;11.60;;
35290;SDS011;21411;50.024;19.220;2022-07-05T03:49:45;13.10;;;12.00;;
35290;SDS011;21411;50.024;19.220;2022-07-05T03:52:12;12.60;;;11.50;;
35290;SDS011;21411;50.024;19.220;2022-07-05T03:54:38;13.70;;;12.50;;
35290;SDS011;21411;50.024;19.220;2022-07-05T03:57:05;13.90;;;12.70;;
35290;SDS011;21411;50.024;19.220;2022-07-05T03:59:32;14.70;;;13.20;;
35290;SDS011;21411;50.024;19.220;2022-07-05T04:01:58;14.80;;;12.00;;
35290;SDS011;21411;50.024;19.220;2022-07-05T04:04:25;14.20;;;12.90;;
35290;SDS011;21411;50.024;19.220;2022-07-05T04:06:51;13.90;;;12.50;;
35290;SDS011;21411;50.024;19.220;2022-07-05T04:09:18;12.80;;;11.60;;
35290;SDS011;21411;50.024;19.220;2022-07-05T04:11:44;14.30;;;12.80;;
35290;SDS011;21411;50.024;19.220;2022-07-05T04:14:11;14.40;;;13.10;;
35290;SDS011;21411;50.024;19.220;2022-07-05T04:16:37;14.10;;;12.60;;
35290;SDS011;21411;50.024;19.220;2022-07-05T04:19:04;14.10;;;12.80;;
35290;SDS011;21411;50.024;19.220;2022-07-05T04:21:31;14.50;;;13.20;;
35290;SDS011;21411;50.024;19.220;2022-07-05T04:23:58;15.00;;;13.40;;
35290;SDS011;21411;50.024;19.220;2022-07-05T04:26:25;14.90;;;13.30;;
35290;SDS011;21411;50.024;19.220;2022-07-05T04:28:52;15.40;;;14.00;;
35290;SDS011;21411;50.024;19.220;2022-07-05T04:31:19;15.50;;;14.00;;
35290;SDS011;21411;50.024;19.220;2022-07-05T04:33:46;16.10;;;14.60;;
35290;SDS011;21411;50.024;19.220;2022-07-05T04:36:12;16.00;;;14.60;;
35290;SDS011;21411;50.024;19.220;2022-07-05T04:38:39;15.30;;;13.90;;
35290;SDS011;21411;50.024;19.220;2022-07-05T04:41:05;15.80;;;14.30;;
35290;SDS011;21411;50.024;19.220;2022-07-05T04:43:32;15.70;;;14.20;;
35290;SDS011;21411;50.024;19.220;2022-07-05T04:46:00;16.10;;;14.60;;
35290;SDS011;21411;50.024;19.220;2022-07-05T04:48:27;14.70;;;13.30;;
35290;SDS011;21411;50.024;19.220;2022-07-05T04:50:54;15.70;;;14.30;;
35290;SDS011;21411;50.024;19.220;2022-07-05T04:53:20;16.30;;;14.60;;
35290;SDS011;21411;50.024;19.220;2022-07-05T04:55:47;15.70;;;14.10;;
35290;SDS011;21411;50.024;19.220;2022-07-05T04:58:13;15.80;;;14.40;;
35290;SDS011;21411;50.024;19.220;2022-07-05T05:00:40;15.90;;;14.20;;
35290;SDS011;21411;50.024;19.220;2022-07-05T05:03:07;16.90;;;15.30;;
35290;SDS011;21411;50.024;19.220;2022-07-05T05:05:33;15.50;;;14.10;;
35290;SDS011;21411;50.024;19.220;2022-07-05T05:08:00;15.60;;;14.30;;
35290;SDS011;21411;50.024;19.220;2022-07-05T05:10:26;16.20;;;14.50;;
35290;SDS011;21411;50.024;19.220;2022-07-05T05:12:53;15.90;;;14.50;;
35290;SDS011;21411;50.024;19.220;2022-07-05T05:15:20;16.50;;;14.90;;
35290;SDS011;21411;50.024;19.220;2022-07-05T05:17:47;18.20;;;16.20;;
35290;SDS011;21411;50.024;19.220;2022-07-05T05:20:16;17.90;;;16.20;;
35290;SDS011;21411;50.024;19.220;2022-07-05T05:22:45;18.30;;;16.60;;
35290;SDS011;21411;50.024;19.220;2022-07-05T05:25:12;18.90;;;16.90;;
35290;SDS011;21411;50.024;19.220;2022-07-05T05:27:43;19.10;;;17.30;;
35290;SDS011;21411;50.024;19.220;2022-07-05T05:30:13;18.30;;;16.40;;
35290;SDS011;21411;50.024;19.220;2022-07-05T05:32:42;17.50;;;15.90;;
35290;SDS011;21411;50.024;19.220;2022-07-05T05:35:08;17.70;;;16.00;;
35290;SDS011;21411;50.024;19.220;2022-07-05T05:40:32;18.40;;;16.70;;
35290;SDS011;21411;50.024;19.220;2022-07-05T05:43:04;18.30;;;16.60;;
35290;SDS011;21411;50.024;19.220;2022-07-05T05:45:30;16.80;;;15.10;;
35290;SDS011;21411;50.024;19.220;2022-07-05T05:47:57;18.60;;;15.30;;
35290;SDS011;21411;50.024;19.220;2022-07-05T05:50:26;17.30;;;15.80;;
35290;SDS011;21411;50.024;19.220;2022-07-05T05:52:55;16.50;;;14.90;;
35290;SDS011;21411;50.024;19.220;2022-07-05T05:55:22;16.90;;;15.30;;
35290;SDS011;21411;50.024;19.220;2022-07-05T05:57:50;15.80;;;14.40;;
35290;SDS011;21411;50.024;19.220;2022-07-05T06:00:18;17.20;;;15.60;;
35290;SDS011;21411;50.024;19.220;2022-07-05T06:02:47;16.70;;;14.90;;
35290;SDS011;21411;50.024;19.220;2022-07-05T06:05:15;18.50;;;16.60;;
35290;SDS011;21411;50.024;19.220;2022-07-05T06:07:47;18.90;;;17.30;;
35290;SDS011;21411;50.024;19.220;2022-07-05T06:10:19;21.80;;;19.30;;
35290;SDS011;21411;50.024;19.220;2022-07-05T06:13:06;21.80;;;19.60;;
35290;SDS011;21411;50.024;19.220;2022-07-05T06:15:34;22.20;;;20.00;;
35290;SDS011;21411;50.024;19.220;2022-07-05T06:18:01;19.00;;;17.30;;
35290;SDS011;21411;50.024;19.220;2022-07-05T06:20:29;23.30;;;21.10;;
35290;SDS011;21411;50.024;19.220;2022-07-05T06:22:58;21.50;;;19.30;;
35290;SDS011;21411;50.024;19.220;2022-07-05T06:25:27;20.00;;;18.20;;
35290;SDS011;21411;50.024;19.220;2022-07-05T06:27:58;17.70;;;16.00;;
35290;SDS011;21411;50.024;19.220;2022-07-05T06:30:33;19.10;;;17.40;;
35290;SDS011;21411;50.024;19.220;2022-07-05T06:33:01;19.30;;;17.60;;
35290;SDS011;21411;50.024;19.220;2022-07-05T06:35:29;19.60;;;17.70;;
35290;SDS011;21411;50.024;19.220;2022-07-05T06:38:06;18.10;;;16.40;;
35290;SDS011;21411;50.024;19.220;2022-07-05T06:40:35;17.10;;;15.40;;
35290;SDS011;21411;50.024;19.220;2022-07-05T06:43:04;15.90;;;14.40;;
35290;SDS011;21411;50.024;19.220;2022-07-05T06:45:32;14.50;;;13.30;;
35290;SDS011;21411;50.024;19.220;2022-07-05T06:48:03;15.70;;;14.30;;
35290;SDS011;21411;50.024;19.220;2022-07-05T06:50:33;15.80;;;14.30;;
35290;SDS011;21411;50.024;19.220;2022-07-05T06:56:01;17.30;;;15.60;;
35290;SDS011;21411;50.024;19.220;2022-07-05T06:58:28;13.20;;;12.10;;
35290;SDS011;21411;50.024;19.220;2022-07-05T07:00:55;12.80;;;11.40;;
35290;SDS011;21411;50.024;19.220;2022-07-05T07:03:22;13.30;;;12.10;;
35290;SDS011;21411;50.024;19.220;2022-07-05T07:05:49;11.80;;;10.50;;
35290;SDS011;21411;50.024;19.220;2022-07-05T07:08:16;12.60;;;11.40;;
35290;SDS011;21411;50.024;19.220;2022-07-05T07:11:15;10.90;;;9.90;;
35290;SDS011;21411;50.024;19.220;2022-07-05T07:13:43;12.30;;;9.70;;
35290;SDS011;21411;50.024;19.220;2022-07-05T07:16:09;12.20;;;11.20;;
35290;SDS011;21411;50.024;19.220;2022-07-05T07:18:36;11.60;;;10.70;;
35290;SDS011;21411;50.024;19.220;2022-07-05T07:21:02;12.40;;;11.30;;
35290;SDS011;21411;50.024;19.220;2022-07-05T07:23:30;12.30;;;11.30;;
35290;SDS011;21411;50.024;19.220;2022-07-05T07:25:57;13.90;;;12.60;;
35290;SDS011;21411;50.024;19.220;2022-07-05T07:28:24;13.30;;;12.00;;
35290;SDS011;21411;50.024;19.220;2022-07-05T07:30:50;12.90;;;11.60;;
35290;SDS011;21411;50.024;19.220;2022-07-05T07:33:17;12.70;;;11.40;;
35290;SDS011;21411;50.024;19.220;2022-07-05T07:35:43;13.70;;;12.40;;
35290;SDS011;21411;50.024;19.220;2022-07-05T07:38:10;14.90;;;13.70;;
35290;SDS011;21411;50.024;19.220;2022-07-05T07:40:36;23.20;;;21.10;;
35290;SDS011;21411;50.024;19.220;2022-07-05T07:43:03;19.80;;;17.80;;
35290;SDS011;21411;50.024;19.220;2022-07-05T07:45:30;18.40;;;16.90;;
35290;SDS011;21411;50.024;19.220;2022-07-05T07:47:57;16.30;;;14.70;;
35290;SDS011;21411;50.024;19.220;2022-07-05T07:50:23;14.90;;;13.70;;
35290;SDS011;21411;50.024;19.220;2022-07-05T07:52:50;14.30;;;12.90;;
35290;SDS011;21411;50.024;19.220;2022-07-05T07:55:16;13.50;;;12.40;;
35290;SDS011;21411;50.024;19.220;2022-07-05T07:57:43;13.60;;;12.30;;
35290;SDS011;21411;50.024;19.220;2022-07-05T08:00:10;14.90;;;13.50;;
35290;SDS011;21411;50.024;19.220;2022-07-05T08:02:37;13.70;;;12.50;;
35290;SDS011;21411;50.024;19.220;2022-07-05T08:05:03;14.80;;;13.30;;
35290;SDS011;21411;50.024;19.220;2022-07-05T08:07:31;14.00;;;12.90;;
35290;SDS011;21411;50.024;19.220;2022-07-05T08:09:58;13.20;;;12.00;;
35290;SDS011;21411;50.024;19.220;2022-07-05T08:12:24;12.70;;;11.70;;
35290;SDS011;21411;50.024;19.220;2022-07-05T08:14:51;11.90;;;10.90;;
35290;SDS011;21411;50.024;19.220;2022-07-05T08:17:17;13.40;;;12.20;;
35290;SDS011;21411;50.024;19.220;2022-07-05T08:19:46;12.90;;;11.70;;
35290;SDS011;21411;50.024;19.220;2022-07-05T08:22:32;11.50;;;10.60;;
35290;SDS011;21411;50.024;19.220;2022-07-05T08:25:00;13.70;;;12.30;;
35290;SDS011;21411;50.024;19.220;2022-07-05T08:27:26;12.30;;;11.20;;
35290;SDS011;21411;50.024;19.220;2022-07-05T08:29:53;12.10;;;11.10;;
35290;SDS011;21411;50.024;19.220;2022-07-05T08:32:20;12.60;;;11.50;;
35290;SDS011;21411;50.024;19.220;2022-07-05T08:34:46;12.30;;;11.10;;
35290;SDS011;21411;50.024;19.220;2022-07-05T08:37:13;12.20;;;11.20;;
35290;SDS011;21411;50.024;19.220;2022-07-05T08:39:39;12.20;;;11.20;;
35290;SDS011;21411;50.024;19.220;2022-07-05T08:42:08;11.90;;;11.00;;
35290;SDS011;21411;50.024;19.220;2022-07-05T08:44:37;11.70;;;10.60;;
35290;SDS011;21411;50.024;19.220;2022-07-05T08:47:07;12.40;;;11.40;;
35290;SDS011;21411;50.024;19.220;2022-07-05T08:49:36;11.90;;;10.90;;
35290;SDS011;21411;50.024;19.220;2022-07-05T08:52:07;12.20;;;11.20;;
35290;SDS011;21411;50.024;19.220;2022-07-05T08:54:37;11.40;;;10.50;;
35290;SDS011;21411;50.024;19.220;2022-07-05T08:57:04;10.90;;;10.10;;
35290;SDS011;21411;50.024;19.220;2022-07-05T08:59:31;11.30;;;10.50;;
35290;SDS011;21411;50.024;19.220;2022-07-05T09:01:58;10.40;;;9.50;;
35290;SDS011;21411;50.024;19.220;2022-07-05T09:04:28;12.70;;;11.60;;
35290;SDS011;21411;50.024;19.220;2022-07-05T09:06:58;12.20;;;11.30;;
35290;SDS011;21411;50.024;19.220;2022-07-05T09:09:31;14.40;;;13.20;;
35290;SDS011;21411;50.024;19.220;2022-07-05T09:11:59;14.80;;;13.80;;
35290;SDS011;21411;50.024;19.220;2022-07-05T09:14:26;16.10;;;14.80;;
35290;SDS011;21411;50.024;19.220;2022-07-05T09:16:53;16.60;;;15.30;;
35290;SDS011;21411;50.024;19.220;2022-07-05T09:19:21;16.10;;;14.80;;
35290;SDS011;21411;50.024;19.220;2022-07-05T09:21:47;14.70;;;13.70;;
35290;SDS011;21411;50.024;19.220;2022-07-05T09:24:28;13.70;;;12.70;;
35290;SDS011;21411;50.024;19.220;2022-07-05T09:27:05;13.20;;;11.90;;
35290;SDS011;21411;50.024;19.220;2022-07-05T09:29:32;11.90;;;10.90;;
35290;SDS011;21411;50.024;19.220;2022-07-05T09:31:58;10.30;;;9.50;;
35290;SDS011;21411;50.024;19.220;2022-07-05T09:34:25;12.20;;;11.20;;
35290;SDS011;21411;50.024;19.220;2022-07-05T09:37:03;10.90;;;10.00;;
35290;SDS011;21411;50.024;19.220;2022-07-05T09:42:20;12.40;;;11.50;;
35290;SDS011;21411;50.024;19.220;2022-07-05T09:44:52;12.70;;;11.80;;
35290;SDS011;21411;50.024;19.220;2022-07-05T09:47:24;12.80;;;11.70;;
35290;SDS011;21411;50.024;19.220;2022-07-05T09:49:54;12.90;;;11.90;;
35290;SDS011;21411;50.024;19.220;2022-07-05T09:57:32;13.00;;;11.90;;
35290;SDS011;21411;50.024;19.220;2022-07-05T10:02:45;14.30;;;13.20;;
35290;SDS011;21411;50.024;19.220;2022-07-05T10:05:17;13.80;;;12.80;;
35290;SDS011;21411;50.024;19.220;2022-07-05T10:07:49;14.30;;;13.30;;
35290;SDS011;21411;50.024;19.220;2022-07-05T10:10:21;14.50;;;13.30;;
35290;SDS011;21411;50.024;19.220;2022-07-05T10:12:50;15.50;;;14.20;;
35290;SDS011;21411;50.024;19.220;2022-07-05T10:15:22;18.00;;;16.30;;
35290;SDS011;21411;50.024;19.220;2022-07-05T10:17:58;17.30;;;15.80;;
35290;SDS011;21411;50.024;19.220;2022-07-05T10:20:28;17.30;;;15.90;;
35290;SDS011;21411;50.024;19.220;2022-07-05T10:23:04;17.40;;;16.10;;
35290;SDS011;21411;50.024;19.220;2022-07-05T10:25:31;15.50;;;14.40;;
35290;SDS011;21411;50.024;19.220;2022-07-05T10:28:00;16.20;;;15.00;;
35290;SDS011;21411;50.024;19.220;2022-07-05T10:30:28;17.90;;;16.50;;
35290;SDS011;21411;50.024;19.220;2022-07-05T10:32:56;17.90;;;16.40;;
35290;SDS011;21411;50.024;19.220;2022-07-05T10:35:23;17.70;;;16.30;;
35290;SDS011;21411;50.024;19.220;2022-07-05T10:37:50;19.40;;;17.90;;
35290;SDS011;21411;50.024;19.220;2022-07-05T10:40:17;19.80;;;18.20;;
35290;SDS011;21411;50.024;19.220;2022-07-05T10:42:54;21.30;;;19.50;;
35290;SDS011;21411;50.024;19.220;2022-07-05T10:45:28;20.50;;;18.70;;
35290;SDS011;21411;50.024;19.220;2022-07-05T10:53:10;17.70;;;16.20;;
35290;SDS011;21411;50.024;19.220;2022-07-05T10:58:38;16.50;;;15.20;;
35290;SDS011;21411;50.024;19.220;2022-07-05T11:03:39;18.40;;;16.80;;
35290;SDS011;21411;50.024;19.220;2022-07-05T11:11:26;17.00;;;15.40;;
35290;SDS011;21411;50.024;19.220;2022-07-05T11:13:59;17.50;;;16.00;;
35290;SDS011;21411;50.024;19.220;2022-07-05T11:16:33;18.30;;;16.50;;
35290;SDS011;21411;50.024;19.220;2022-07-05T11:21:33;13.50;;;12.40;;
35290;SDS011;21411;50.024;19.220;2022-07-05T11:26:45;12.60;;;11.50;;
35290;SDS011;21411;50.024;19.220;2022-07-05T11:32:10;11.60;;;7.20;;
35290;SDS011;21411;50.024;19.220;2022-07-05T11:34:42;9.70;;;6.80;;
35290;SDS011;21411;50.024;19.220;2022-07-05T11:39:45;6.70;;;6.00;;
35290;SDS011;21411;50.024;19.220;2022-07-05T11:42:19;7.00;;;6.40;;
35290;SDS011;21411;50.024;19.220;2022-07-05T11:44:49;6.60;;;6.10;;
35290;SDS011;21411;50.024;19.220;2022-07-05T11:47:16;6.60;;;6.10;;
35290;SDS011;21411;50.024;19.220;2022-07-05T11:49:53;6.20;;;5.70;;
35290;SDS011;21411;50.024;19.220;2022-07-05T11:52:30;5.10;;;4.80;;
35290;SDS011;21411;50.024;19.220;2022-07-05T11:54:59;5.70;;;5.30;;
35290;SDS011;21411;50.024;19.220;2022-07-05T11:57:27;4.20;;;3.90;;
35290;SDS011;21411;50.024;19.220;2022-07-05T11:59:54;2.70;;;2.50;;
35290;SDS011;21411;50.024;19.220;2022-07-05T12:02:21;2.70;;;2.50;;
35290;SDS011;21411;50.024;19.220;2022-07-05T12:04:48;3.00;;;2.60;;
35290;SDS011;21411;50.024;19.220;2022-07-05T12:07:29;2.30;;;2.20;;
35290;SDS011;21411;50.024;19.220;2022-07-05T12:09:56;2.60;;;2.40;;
35290;SDS011;21411;50.024;19.220;2022-07-05T12:12:42;2.80;;;2.00;;
35290;SDS011;21411;50.024;19.220;2022-07-05T12:15:10;2.10;;;1.80;;
35290;SDS011;21411;50.024;19.220;2022-07-05T12:17:39;2.30;;;2.00;;
35290;SDS011;21411;50.024;19.220;2022-07-05T12:20:08;1.80;;;1.70;;
35290;SDS011;21411;50.024;19.220;2022-07-05T12:22:39;1.90;;;1.70;;
35290;SDS011;21411;50.024;19.220;2022-07-05T12:25:07;2.20;;;2.10;;
35290;SDS011;21411;50.024;19.220;2022-07-05T12:27:38;2.40;;;2.20;;
35290;SDS011;21411;50.024;19.220;2022-07-05T12:30:07;2.20;;;2.10;;
35290;SDS011;21411;50.024;19.220;2022-07-05T12:35:41;3.10;;;2.90;;
35290;SDS011;21411;50.024;19.220;2022-07-05T12:38:12;3.40;;;3.10;;
35290;SDS011;21411;50.024;19.220;2022-07-05T12:40:46;4.70;;;3.20;;
35290;SDS011;21411;50.024;19.220;2022-07-05T12:43:16;3.40;;;3.20;;
35290;SDS011;21411;50.024;19.220;2022-07-05T12:45:57;3.60;;;3.30;;
35290;SDS011;21411;50.024;19.220;2022-07-05T12:48:30;3.10;;;2.80;;
35290;SDS011;21411;50.024;19.220;2022-07-05T12:50:59;3.90;;;3.60;;
35290;SDS011;21411;50.024;19.220;2022-07-05T12:53:26;3.80;;;3.50;;
35290;SDS011;21411;50.024;19.220;2022-07-05T12:56:12;3.80;;;3.60;;
35290;SDS011;21411;50.024;19.220;2022-07-05T12:58:59;4.40;;;4.00;;
35290;SDS011;21411;50.024;19.220;2022-07-05T13:01:31;3.90;;;3.60;;
35290;SDS011;21411;50.024;19.220;2022-07-05T13:06:51;4.50;;;4.10;;
35290;SDS011;21411;50.024;19.220;2022-07-05T13:14:40;8.60;;;7.90;;
35290;SDS011;21411;50.024;19.220;2022-07-05T13:17:16;8.30;;;7.50;;
35290;SDS011;21411;50.024;19.220;2022-07-05T13:19:47;6.10;;;5.60;;
35290;SDS011;21411;50.024;19.220;2022-07-05T13:22:15;7.10;;;6.50;;
35290;SDS011;21411;50.024;19.220;2022-07-05T13:24:43;7.80;;;7.20;;
35290;SDS011;21411;50.024;19.220;2022-07-05T13:27:11;6.10;;;5.70;;
35290;SDS011;21411;50.024;19.220;2022-07-05T13:29:39;6.00;;;5.60;;
35290;SDS011;21411;50.024;19.220;2022-07-05T13:32:06;7.30;;;6.70;;
35290;SDS011;21411;50.024;19.220;2022-07-05T13:34:34;6.70;;;6.20;;
35290;SDS011;21411;50.024;19.220;2022-07-05T13:37:00;5.00;;;4.70;;
35290;SDS011;21411;50.024;19.220;2022-07-05T13:39:27;4.80;;;4.50;;
35290;SDS011;21411;50.024;19.220;2022-07-05T13:41:55;4.90;;;4.50;;
35290;SDS011;21411;50.024;19.220;2022-07-05T13:44:23;4.80;;;4.50;;
35290;SDS011;21411;50.024;19.220;2022-07-05T13:46:49;4.80;;;4.30;;
35290;SDS011;21411;50.024;19.220;2022-07-05T13:49:16;5.20;;;4.80;;
35290;SDS011;21411;50.024;19.220;2022-07-05T13:51:43;5.20;;;4.80;;
35290;SDS011;21411;50.024;19.220;2022-07-05T13:54:10;6.10;;;5.60;;
35290;SDS011;21411;50.024;19.220;2022-07-05T13:56:36;6.40;;;4.80;;
35290;SDS011;21411;50.024;19.220;2022-07-05T13:59:03;5.70;;;5.30;;
35290;SDS011;21411;50.024;19.220;2022-07-05T14:01:30;6.60;;;5.90;;
35290;SDS011;21411;50.024;19.220;2022-07-05T14:03:57;7.10;;;6.40;;
35290;SDS011;21411;50.024;19.220;2022-07-05T14:06:27;7.00;;;6.30;;
35290;SDS011;21411;50.024;19.220;2022-07-05T14:08:54;6.70;;;6.10;;
35290;SDS011;21411;50.024;19.220;2022-07-05T14:11:21;6.90;;;6.30;;
35290;SDS011;21411;50.024;19.220;2022-07-05T14:13:48;8.00;;;7.40;;
35290;SDS011;21411;50.024;19.220;2022-07-05T14:16:15;8.50;;;7.70;;
35290;SDS011;21411;50.024;19.220;2022-07-05T14:18:41;7.70;;;7.10;;
35290;SDS011;21411;50.024;19.220;2022-07-05T14:21:08;8.10;;;7.10;;
35290;SDS011;21411;50.024;19.220;2022-07-05T14:23:41;8.60;;;7.70;;
35290;SDS011;21411;50.024;19.220;2022-07-05T14:26:09;8.40;;;7.70;;
35290;SDS011;21411;50.024;19.220;2022-07-05T14:28:37;10.70;;;9.60;;
35290;SDS011;21411;50.024;19.220;2022-07-05T14:31:04;11.30;;;10.20;;
35290;SDS011;21411;50.024;19.220;2022-07-05T14:33:30;11.60;;;10.60;;
35290;SDS011;21411;50.024;19.220;2022-07-05T14:35:57;10.60;;;9.70;;
35290;SDS011;21411;50.024;19.220;2022-07-05T14:38:23;11.70;;;10.60;;
35290;SDS011;21411;50.024;19.220;2022-07-05T14:40:50;13.40;;;12.10;;
35290;SDS011;21411;50.024;19.220;2022-07-05T14:43:17;13.40;;;12.30;;
35290;SDS011;21411;50.024;19.220;2022-07-05T14:45:43;12.40;;;11.30;;
35290;SDS011;21411;50.024;19.220;2022-07-05T14:48:10;13.60;;;12.30;;
35290;SDS011;21411;50.024;19.220;2022-07-05T14:50:36;12.50;;;11.40;;
35290;SDS011;21411;50.024;19.220;2022-07-05T14:53:03;12.60;;;11.50;;
35290;SDS011;21411;50.024;19.220;2022-07-05T14:55:34;12.10;;;11.00;;
35290;SDS011;21411;50.024;19.220;2022-07-05T14:58:02;10.90;;;9.90;;
35290;SDS011;21411;50.024;19.220;2022-07-05T15:00:29;14.60;;;13.30;;
35290;SDS011;21411;50.024;19.220;2022-07-05T15:02:55;15.10;;;13.70;;
35290;SDS011;21411;50.024;19.220;2022-07-05T15:05:22;13.90;;;12.80;;
35290;SDS011;21411;50.024;19.220;2022-07-05T15:07:49;12.40;;;11.20;;
35290;SDS011;21411;50.024;19.220;2022-07-05T15:10:15;15.00;;;13.70;;
35290;SDS011;21411;50.024;19.220;2022-07-05T15:12:42;13.20;;;12.00;;
35290;SDS011;21411;50.024;19.220;2022-07-05T15:15:08;12.70;;;11.50;;
35290;SDS011;21411;50.024;19.220;2022-07-05T15:17:35;12.80;;;11.70;;
35290;SDS011;21411;50.024;19.220;2022-07-05T15:20:03;13.40;;;12.20;;
35290;SDS011;21411;50.024;19.220;2022-07-05T15:22:34;12.60;;;11.50;;